• Join FlightAware (Why Join?)
  • Login
  • US Flag 
09:21PM EDT


 

Airport Tracker/Info


-or-


 

Live Flight TrackerFlight Track Log ✈ SWA3758 ✈ 08-Jul-2013 ✈ KDAL - KSTL

Flight Track Log - Related Links

Times and Time Zones

All times are in EDT time to prevent confusion due to time zone crossing. See the SWA3758 flight status page for this flight to view local times or setup timezone preferences in your user account.

Time Position Orientation Groundspeed Altitude Reporting Facility
EDT Latitude Longitude Course Direction KTS MPH feet Rate Location/Type
10:26PM 32.8333 -96.8333 140° Southeast 152 175 1,700  Level Dallas / Fort Worth TRACON
10:26PM 32.8000 -96.8000 140° Southeast 202 232 3,800 3,540 Climbing Dallas / Fort Worth TRACON
10:27PM 32.7833 -96.7500 112° Southeast 228 262 7,500 3,180 Climbing Dallas / Fort Worth TRACON
10:30PM 32.9736 -96.7497 360° North 322 371 13,900 2,880 Climbing Fort Worth Center
10:31PM 33.0656 -96.7639 353° North 364 419 17,000 3,060 Climbing Fort Worth Center
10:32PM 33.1844 -96.7831 352° North 377 434 20,100 2,760 Climbing Fort Worth Center
10:33PM 33.2761 -96.7425 20° North 374 430 22,600 2,400 Climbing Fort Worth Center
10:34PM 33.3803 -96.6622 33° Northeast 387 445 25,000 2,340 Climbing Fort Worth Center
10:35PM 33.4797 -96.5842 33° Northeast 407 468 27,300 2,220 Climbing Fort Worth Center
10:36PM 33.5814 -96.5008 34° Northeast 424 488 29,500 2,100 Climbing Fort Worth Center
10:37PM 33.6853 -96.4200 33° Northeast 436 502 31,500 2,220 Climbing Fort Worth Center
10:38PM 33.7869 -96.3389 34° Northeast 436 502 34,000 2,220 Climbing Fort Worth Center
10:39PM 33.8883 -96.2575 34° Northeast 436 502 36,000 1,860 Climbing Fort Worth Center
10:40PM 33.9878 -96.1786 33° Northeast 436 502 37,800 1,680 Climbing Fort Worth Center
10:41PM 34.0872 -96.0994 33° Northeast 436 502 39,400 1,440 Climbing Fort Worth Center
10:42PM 34.1803 -96.0228 34° Northeast 423 487 40,700 780 Climbing Fort Worth Center
10:43PM 34.2794 -95.9406 34° Northeast 423 487 41,000 120 Climbing Fort Worth Center
10:44PM 34.3808 -95.8583 34° Northeast 423 487 41,000  Level Fort Worth Center
10:45PM 34.4819 -95.7786 33° Northeast 428 493 41,000  Level Fort Worth Center
10:46PM 34.5789 -95.6958 35° Northeast 428 493 41,000  Level Fort Worth Center
10:47PM 34.6781 -95.6156 34° Northeast 428 493 41,000  Level Fort Worth Center
10:49PM 34.9042 -95.4339 33° Northeast 446 513 41,000  Level Memphis Center
10:50PM 35.0033 -95.3536 34° Northeast 434 499 41,000  Level Memphis Center
10:51PM 35.1047 -95.2708 34° Northeast 429 494 41,000  Level Memphis Center
10:52PM 35.2039 -95.1878 34° Northeast 429 494 41,000  Level Memphis Center
10:53PM 35.3031 -95.1044 34° Northeast 434 499 41,000  Level Memphis Center
10:54PM 35.4000 -95.0208 35° Northeast 434 499 41,000  Level Memphis Center
10:55PM 35.4989 -94.9372 35° Northeast 434 499 41,000  Level Memphis Center
10:56PM 35.5958 -94.8556 34° Northeast 434 499 41,000  Level Memphis Center
10:57PM 35.6947 -94.7717 35° Northeast 434 499 41,000  Level Memphis Center
10:58PM 35.7978 -94.6875 34° Northeast 434 499 41,000  Level Memphis Center
10:59PM 35.8967 -94.6006 35° Northeast 434 499 41,000  Level Memphis Center
11:00PM 35.9956 -94.5158 35° Northeast 434 499 41,000  Level Memphis Center
11:02PM 36.1767 -94.3636 34° Northeast 439 505 41,000  Level Kansas City Center
11:03PM 36.2764 -94.2786 34° Northeast 438 504 41,000  Level Kansas City Center
11:04PM 36.3761 -94.1917 35° Northeast 438 504 41,000  Level Kansas City Center
11:05PM 36.4758 -94.1067 34° Northeast 437 503 41,000  Level Kansas City Center
11:06PM 36.5967 -94.0025 35° Northeast 439 505 41,000  Level Kansas City Center
11:07PM 36.6978 -93.9147 35° Northeast 442 509 41,000  Level Kansas City Center
11:08PM 36.7981 -93.8267 35° Northeast 442 509 41,000  Level Kansas City Center
11:09PM 36.8894 -93.7483 34° Northeast 439 505 41,000  Level Kansas City Center
11:10PM 36.9892 -93.6583 36° Northeast 440 506 41,000  Level Kansas City Center
11:11PM 37.1097 -93.5494 36° Northeast 443 510 41,000  Level Kansas City Center
11:12PM 37.2119 -93.4608 35° Northeast 444 511 41,000  Level Kansas City Center
11:13PM 37.3153 -93.3733 34° Northeast 446 513 41,000  Level Kansas City Center
11:14PM 37.4100 -93.2731 40° Northeast 443 510 41,000 -420 Level Kansas City Center
11:15PM 37.5003 -93.1656 43° Northeast 444 511 40,200 -840 Descending Kansas City Center
11:16PM 37.5931 -93.0603 42° Northeast 446 513 39,300 -960 Descending Kansas City Center
11:17PM 37.6850 -92.9517 43° Northeast 449 517 38,300 -960 Descending Kansas City Center
11:18PM 37.7786 -92.8411 43° Northeast 457 526 37,400 -960 Descending Kansas City Center
11:19PM 37.8783 -92.7239 43° Northeast 464 534 36,400 -1,020 Descending Kansas City Center
11:20PM 37.9569 -92.5961 52° Northeast 461 531 35,400 -960 Descending Kansas City Center
11:21PM 38.0308 -92.4575 56° Northeast 470 541 34,500 -960 Descending Kansas City Center
11:22PM 38.1089 -92.3222 54° Northeast 475 547 33,500 -1,020 Descending Kansas City Center
11:23PM 38.1800 -92.1825 57° Northeast 473 544 32,500 -1,020 Descending Kansas City Center
11:24PM 38.2578 -92.0353 56° Northeast 474 545 31,500 -1,020 Descending Kansas City Center
11:25PM 38.3314 -91.8972 56° Northeast 472 543 30,500 -1,320 Descending Kansas City Center
11:26PM 38.4025 -91.7622 56° Northeast 463 533 28,800 -2,400 Descending Kansas City Center
11:27PM 38.4844 -91.6058 56° Northeast 444 511 25,700 -2,760 Descending Kansas City Center
11:28PM 38.5506 -91.4797 56° Northeast 432 497 23,300 -2,280 Descending Kansas City Center
11:29PM 38.6100 -91.3664 56° Northeast 419 482 21,100 -2,220 Descending Kansas City Center
11:30PM 38.6714 -91.2492 56° Northeast 403 464 18,800 -2,220 Descending Kansas City Center
11:31PM 38.6958 -91.1200 76° East 387 445 16,600 -2,220 Descending Kansas City Center
11:32PM 38.6983 -90.9914 89° East 369 425 14,300 -2,220 Descending Kansas City Center
11:33PM 38.7025 -90.8653 88° East 359 413 12,100 -1,920 Descending Kansas City Center
11:34PM 38.7053 -90.7444 88° East 347 399 10,400 -1,380 Descending Kansas City Center
11:35PM 38.7108 -90.6172 87° East 305 351 9,300 -1,380 Descending Kansas City Center
11:36PM 38.7089 -90.5181 91° East 289 333 7,700 -1,200 Descending Kansas City Center
11:37PM 38.6697 -90.4361 121° Southeast 280 322 6,900 -600 Descending Kansas City Center
11:39PM 38.6358 -90.3667 122° Southeast 251 289 6,500 -660 Descending Kansas City Center
11:40PM 38.6169 -90.2881 107° East 204 235 5,600 -1,140 Descending Kansas City Center
11:41PM 38.6456 -90.2467 48° Northeast 196 226 4,300 -1,680 Descending Kansas City Center
11:42PM 38.6961 -90.2603 348° North 175 201 2,300 -1,500 Descending Kansas City Center
11:43PM 38.7169 -90.3031 302° West 155 178 1,300 -840 Descending Kansas City Center
11:44PM 38.7364 -90.3428 302° West 142 163 700 -420 Descending Kansas City Center
11:45PM 38.7561 -90.3831 302° West 141 162 500 -240 Descending Kansas City Center